Time;durP1;ratioP1;P1;durP2;ratioP2;P2;SDS_P1;SDS_P2;PMS_P1;PMS_P2;Temp;Humidity;BMP_temperature;BMP_pressure;BME280_temperature;BME280_humidity;BME280_pressure;Samples;Min_cycle;Max_cycle;Signal;HPM_P1;HPM_P2
2023/12/30 00:00:26;;;;;;;;;0.00;0.00;;;;;13.81;100.00;101365.66;5056145;28;74604;-81
2023/12/30 00:02:51;;;;;;;;;0.00;0.00;;;;;13.87;100.00;101343.69;5057423;28;45496;-82
2023/12/30 00:05:17;;;;;;;;;0.00;0.00;;;;;13.89;100.00;101362.81;5056682;28;69249;-81
2023/12/30 00:07:43;;;;;;;;;0.00;0.00;;;;;13.88;100.00;101361.97;5057666;28;45301;-81
2023/12/30 00:10:09;;;;;;;;;0.00;0.00;;;;;13.88;100.00;101361.09;5057582;28;45709;-82
2023/12/30 00:12:34;;;;;;;;;0.00;0.00;;;;;13.90;100.00;101354.06;5057311;28;45534;-82
2023/12/30 00:15:00;;;;;;;;;0.00;0.00;;;;;13.97;100.00;101355.56;5056124;28;69601;-81
2023/12/30 00:17:25;;;;;;;;;0.00;0.00;;;;;14.01;100.00;101351.09;5056572;28;66232;-81
2023/12/30 00:19:53;;;;;;;;;0.00;0.00;;;;;14.04;100.00;101351.84;5056105;28;73950;-82
2023/12/30 00:22:18;;;;;;;;;0.00;0.00;;;;;14.10;100.00;101354.25;5048834;28;45376;-82
2023/12/30 00:24:43;;;;;;;;;0.00;0.00;;;;;14.08;100.00;101345.59;5057247;28;45294;-81
2023/12/30 00:27:09;;;;;;;;;0.00;0.00;;;;;14.07;100.00;101343.88;5056371;28;69194;-81
2023/12/30 00:29:39;;;;;;;;;0.00;0.00;;;;;14.07;100.00;101345.63;5038638;28;46113;-82
2023/12/30 00:32:05;;;;;;;;;0.00;0.00;;;;;14.07;100.00;101343.03;5057150;28;45339;-81
2023/12/30 00:34:33;;;;;;;;;0.00;0.00;;;;;14.06;100.00;101339.56;5057255;28;45407;-82
2023/12/30 00:36:59;;;;;;;;;0.00;0.00;;;;;14.05;100.00;101345.69;5039049;28;45449;-81
2023/12/30 00:39:24;;;;;;;;;0.00;0.00;;;;;14.05;100.00;101350.06;5056786;28;48196;-82
2023/12/30 00:41:49;;;;;;;;;0.00;0.00;;;;;14.03;100.00;101344.88;5037900;28;45299;-81
2023/12/30 00:44:15;;;;;;;;;0.00;0.00;;;;;14.04;100.00;101341.38;5055540;28;69336;-81
2023/12/30 00:46:40;;;;;;;;;0.00;0.00;;;;;14.06;100.00;101341.28;5055990;28;69196;-82
2023/12/30 00:49:08;;;;;;;;;0.00;0.00;;;;;14.02;100.00;101334.47;5056004;28;61827;-82
2023/12/30 00:51:33;;;;;;;;;0.00;0.00;;;;;13.98;100.00;101338.94;5039120;28;45471;-81
2023/12/30 00:53:59;;;;;;;;;0.00;0.00;;;;;13.92;100.00;101339.16;5055782;28;69203;-82
2023/12/30 00:56:24;;;;;;;;;0.00;0.00;;;;;13.91;100.00;101335.69;5056768;28;45492;-81
2023/12/30 00:58:49;;;;;;;;;0.00;0.00;;;;;13.87;100.00;101339.31;5055261;28;75545;-82
2023/12/30 01:01:15;;;;;;;;;0.00;0.00;;;;;13.86;100.00;101342.00;5055542;28;73086;-81
2023/12/30 01:03:40;;;;;;;;;0.00;0.00;;;;;13.84;100.00;101335.94;5056473;28;45473;-81
2023/12/30 01:06:06;;;;;;;;;0.00;0.00;;;;;13.82;100.00;101340.34;5037797;28;69501;-82
2023/12/30 01:08:31;;;;;;;;;0.00;0.00;;;;;13.76;100.00;101346.66;5056404;28;47212;-82
2023/12/30 01:10:57;;;;;;;;;0.00;0.00;;;;;13.75;100.00;101353.66;5055473;28;73571;-82
2023/12/30 01:13:22;;;;;;;;;0.00;0.00;;;;;13.73;100.00;101341.53;5038215;28;45248;-82
2023/12/30 01:15:47;;;;;;;;;0.00;0.00;;;;;13.70;100.00;101349.47;5038271;28;45382;-81
2023/12/30 01:18:13;;;;;;;;;0.00;0.00;;;;;13.68;100.00;101357.34;5055315;28;73602;-82
2023/12/30 01:20:38;;;;;;;;;0.00;0.00;;;;;13.65;100.00;101353.97;5055854;28;54944;-82
2023/12/30 01:23:03;;;;;;;;;0.00;0.00;;;;;13.62;100.00;101360.19;5055290;28;69023;-81
2023/12/30 01:25:29;;;;;;;;;0.00;0.00;;;;;13.63;100.00;101351.44;5037089;28;70299;-81
2023/12/30 01:27:54;;;;;;;;;0.00;0.00;;;;;13.63;100.00;101348.81;5036892;28;71875;-82
2023/12/30 01:30:19;;;;;;;;;0.00;0.00;;;;;13.66;100.00;101347.88;5055005;28;72502;-81
2023/12/30 01:32:45;;;;;;;;;0.00;0.00;;;;;13.62;100.00;101352.34;5056279;28;45323;-82
2023/12/30 01:35:10;;;;;;;;;0.00;0.00;;;;;13.60;100.00;101353.31;5056368;28;45395;-82
2023/12/30 01:37:36;;;;;;;;;0.00;0.00;;;;;13.56;100.00;101352.53;5054998;28;73849;-82
2023/12/30 01:40:02;;;;;;;;;0.00;0.00;;;;;13.51;100.00;101351.81;5055159;28;73281;-82
2023/12/30 01:42:28;;;;;;;;;0.00;0.00;;;;;13.50;100.00;101357.94;5055582;28;45313;-81
2023/12/30 01:44:53;;;;;;;;;0.00;0.00;;;;;13.45;100.00;101346.78;5055827;28;45527;-82
2023/12/30 01:47:18;;;;;;;;;0.00;0.00;;;;;13.45;100.00;101354.63;5037866;28;51892;-82
2023/12/30 01:49:44;;;;;;;;;0.00;0.00;;;;;13.47;100.00;101358.06;5037861;28;45364;-81
2023/12/30 01:52:10;;;;;;;;;0.00;0.00;;;;;13.41;100.00;101358.22;5037907;28;45441;-82
2023/12/30 01:54:36;;;;;;;;;0.00;0.00;;;;;13.42;100.00;101359.94;5019465;28;70346;-81
2023/12/30 01:57:02;;;;;;;;;0.00;0.00;;;;;13.35;100.00;101370.59;5037599;28;46344;-81
2023/12/30 01:59:29;;;;;;;;;0.00;0.00;;;;;13.36;100.00;101372.31;5037967;28;45303;-82
2023/12/30 02:01:55;;;;;;;;;0.00;0.00;;;;;13.35;100.00;101370.59;5055926;28;45280;-82
2023/12/30 02:04:22;;;;;;;;;3.00;3.00;;;;;13.32;100.00;101364.63;5038049;28;45410;-81
2023/12/30 02:06:47;;;;;;;;;0.00;0.00;;;;;13.31;100.00;101374.19;5037818;28;47454;-81
2023/12/30 02:09:12;;;;;;;;;0.00;0.00;;;;;13.26;100.00;101376.09;5055912;28;45328;-81
2023/12/30 02:11:38;;;;;;;;;0.00;0.00;;;;;13.26;100.00;101377.81;5036648;28;59941;-81
2023/12/30 02:14:04;;;;;;;;;0.00;0.00;;;;;13.29;100.00;101378.59;5055609;28;45697;-80
2023/12/30 02:16:29;;;;;;;;;0.00;0.00;;;;;13.26;100.00;101386.53;5037484;28;52743;-81
2023/12/30 02:18:54;;;;;;;;;0.00;0.00;;;;;13.25;100.00;101386.56;5054670;28;71148;-81
2023/12/30 02:21:19;;;;;;;;;0.00;0.00;;;;;13.22;100.00;101392.72;5054544;28;69327;-81
2023/12/30 02:23:51;;;;;;;;;18.00;18.00;;;;;13.22;100.00;101387.50;5054341;28;70977;-82
2023/12/30 02:26:17;;;;;;;;;0.00;0.00;;;;;13.23;100.00;101391.00;5054986;28;46110;-81
2023/12/30 02:28:42;;;;;;;;;0.00;0.00;;;;;13.22;100.00;101397.97;5054360;28;74133;-81
2023/12/30 02:31:07;;;;;;;;;0.00;0.00;;;;;13.23;100.00;101399.69;5054737;28;58290;-81
2023/12/30 02:33:33;;;;;;;;;0.00;0.00;;;;;13.22;100.00;101395.34;5036680;28;60541;-81
2023/12/30 02:35:58;;;;;;;;;0.00;0.00;;;;;13.23;100.00;101393.63;5054135;28;75564;-81
2023/12/30 02:38:23;;;;;;;;;0.00;0.00;;;;;13.24;100.00;101398.81;5055278;28;45448;-81
2023/12/30 02:40:49;;;;;;;;;0.00;0.00;;;;;13.24;100.00;101400.53;5054068;28;69247;-81
2023/12/30 02:43:14;;;;;;;;;0.00;0.00;;;;;13.24;100.00;101396.19;5037226;28;45365;-81
2023/12/30 02:45:39;;;;;;;;;0.00;0.00;;;;;13.21;100.00;101396.28;5053971;28;75478;-81
2023/12/30 02:48:05;;;;;;;;;0.00;0.00;;;;;13.22;100.00;101399.72;5037082;28;45520;-81
2023/12/30 02:50:30;;;;;;;;;0.00;0.00;;;;;13.24;100.00;101404.03;5037240;28;45536;-81
2023/12/30 02:52:56;;;;;;;;;0.00;0.00;;;;;13.24;100.00;101400.53;5054585;28;62061;-81
2023/12/30 02:55:21;;;;;;;;;0.00;0.00;;;;;13.23;100.00;101410.16;5053770;28;72958;-82
2023/12/30 02:57:46;;;;;;;;;0.00;0.00;;;;;13.21;100.00;101403.25;5054298;28;65645;-81
2023/12/30 03:00:12;;;;;;;;;0.00;0.00;;;;;13.20;100.00;101398.91;5054106;28;68089;-81
2023/12/30 03:02:38;;;;;;;;;0.00;0.00;;;;;13.16;100.00;101403.38;5037039;28;45411;-81
2023/12/30 03:05:03;;;;;;;;;0.00;0.00;;;;;13.17;100.00;101392.88;5055629;28;75895;-81
2023/12/30 03:07:28;;;;;;;;;0.00;0.00;;;;;13.17;100.00;101399.88;5058497;28;45460;-81
2023/12/30 03:09:54;;;;;;;;;0.00;0.00;;;;;13.15;100.00;101393.84;5039238;28;69522;-81
2023/12/30 03:12:19;;;;;;;;;0.00;0.00;;;;;13.12;100.00;101400.00;5058061;28;52504;-81
2023/12/30 03:14:44;;;;;;;;;0.00;0.00;;;;;13.10;100.00;101390.50;5058079;28;47767;-81
2023/12/30 03:17:10;;;;;;;;;0.00;0.00;;;;;13.11;100.00;101393.06;5040388;28;45464;-81
2023/12/30 03:19:36;;;;;;;;;0.00;0.00;;;;;13.11;100.00;101390.47;5040365;28;45264;-81
2023/12/30 03:22:01;;;;;;;;;0.00;0.00;;;;;13.08;100.00;101401.00;5057240;28;69354;-81
2023/12/30 03:24:26;;;;;;;;;0.00;0.00;;;;;13.08;100.00;101400.16;5056726;28;73038;-81
2023/12/30 03:26:53;;;;;;;;;0.00;0.00;;;;;13.05;100.00;101395.00;5057052;28;73356;-81
2023/12/30 03:29:18;;;;;;;;;0.00;0.00;;;;;13.02;100.00;101398.56;5058347;28;45383;-80
2023/12/30 03:31:44;;;;;;;;;0.00;0.00;;;;;13.03;100.00;101400.25;5023548;28;45334;-81
2023/12/30 03:34:09;;;;;;;;;0.00;0.00;;;;;13.00;100.00;101399.50;5038895;28;74491;-81
2023/12/30 03:36:35;;;;;;;;;0.00;0.00;;;;;13.01;100.00;101404.69;5057203;28;63282;-81
2023/12/30 03:39:00;;;;;;;;;0.00;0.00;;;;;13.01;100.00;101404.69;5056823;28;67986;-81
2023/12/30 03:41:26;;;;;;;;;0.00;0.00;;;;;12.97;100.00;101413.50;5057426;28;54207;-81
2023/12/30 03:43:51;;;;;;;;;0.00;0.00;;;;;12.98;100.00;101421.31;5056740;28;65136;-81
2023/12/30 03:46:16;;;;;;;;;0.00;0.00;;;;;12.94;100.00;101419.66;5058022;28;45369;-81
2023/12/30 03:48:42;;;;;;;;;0.00;0.00;;;;;12.95;100.00;101412.69;5056979;28;67311;-80
2023/12/30 03:51:07;;;;;;;;;0.00;0.00;;;;;12.92;100.00;101418.00;5057987;28;45206;-81
2023/12/30 03:53:33;;;;;;;;;0.00;0.00;;;;;12.91;100.00;101418.91;5057268;28;47111;-81
2023/12/30 03:55:58;;;;;;;;;0.00;0.00;;;;;12.90;100.00;101422.41;5056507;28;74093;-81
2023/12/30 03:58:24;;;;;;;;;0.00;0.00;;;;;12.89;100.00;101411.13;5057825;28;45302;-81
2023/12/30 04:00:49;;;;;;;;;0.00;0.00;;;;;12.90;100.00;101404.13;5039586;28;45304;-81
2023/12/30 04:03:14;;;;;;;;;0.00;0.00;;;;;12.87;100.00;101402.47;5038362;28;75577;-81
2023/12/30 04:05:40;;;;;;;;;0.00;0.00;;;;;12.85;100.00;101408.63;5056557;28;72872;-81
2023/12/30 04:08:05;;;;;;;;;0.00;0.00;;;;;12.85;100.00;101401.66;5057229;28;45451;-81
2023/12/30 04:10:31;;;;;;;;;0.00;0.00;;;;;12.82;100.00;101401.72;5056661;28;68577;-81
2023/12/30 04:12:56;;;;;;;;;0.00;0.00;;;;;12.83;100.00;101397.34;5056279;28;75463;-81
2023/12/30 04:15:22;;;;;;;;;0.00;0.00;;;;;12.81;100.00;101407.00;5038160;28;68167;-81
2023/12/30 04:17:47;;;;;;;;;0.00;0.00;;;;;12.84;100.00;101404.31;5055926;28;66406;-80
2023/12/30 04:20:12;;;;;;;;;0.00;0.00;;;;;12.83;100.00;101405.19;5057033;28;51656;-81
2023/12/30 04:22:38;;;;;;;;;0.00;0.00;;;;;12.85;100.00;101406.00;5055742;28;75423;-81
2023/12/30 04:25:03;;;;;;;;;0.00;0.00;;;;;12.84;100.00;101406.91;5056882;28;50927;-81
2023/12/30 04:27:29;;;;;;;;;0.00;0.00;;;;;12.83;100.00;101397.34;5057265;28;45366;-81
2023/12/30 04:29:54;;;;;;;;;0.00;0.00;;;;;12.75;100.00;101398.41;5056200;28;69390;-80
2023/12/30 04:32:24;;;;;;;;;0.00;0.00;;;;;12.79;100.00;101389.59;5039277;28;45373;-81
2023/12/30 04:34:50;;;;;;;;;0.00;0.00;;;;;12.77;100.00;101391.41;5039703;28;45445;-81
2023/12/30 04:37:15;;;;;;;;;0.00;0.00;;;;;12.75;100.00;101387.13;5038836;28;45389;-81
2023/12/30 04:39:40;;;;;;;;;0.00;0.00;;;;;12.73;100.00;101384.53;5039213;28;45517;-81
2023/12/30 04:42:06;;;;;;;;;0.00;0.00;;;;;12.73;100.00;101386.31;5055593;28;75402;-81
2023/12/30 04:44:32;;;;;;;;;0.00;0.00;;;;;12.77;100.00;101388.78;5056678;28;45536;-81
2023/12/30 04:46:57;;;;;;;;;0.00;0.00;;;;;12.77;100.00;101388.78;5038141;28;68122;-81
2023/12/30 04:49:22;;;;;;;;;0.00;0.00;;;;;12.78;100.00;101387.03;5056967;28;45410;-81
2023/12/30 04:51:48;;;;;;;;;0.00;0.00;;;;;12.78;100.00;101392.28;5055551;28;70256;-81
2023/12/30 04:54:13;;;;;;;;;0.00;0.00;;;;;12.79;100.00;101391.34;5055914;28;63193;-81
2023/12/30 04:56:38;;;;;;;;;0.00;0.00;;;;;12.81;100.00;101393.94;5057004;28;45407;-81
2023/12/30 04:59:04;;;;;;;;;0.00;0.00;;;;;12.81;100.00;101399.16;5055922;28;70414;-81
2023/12/30 05:01:31;;;;;;;;;0.00;0.00;;;;;12.82;100.00;101393.91;5056489;28;46081;-81
2023/12/30 05:03:56;;;;;;;;;0.00;0.00;;;;;12.78;100.00;101394.88;5038387;28;45409;-81
2023/12/30 05:06:22;;;;;;;;;0.00;0.00;;;;;12.78;100.00;101395.72;5055778;28;67928;-81
2023/12/30 05:08:48;;;;;;;;;0.00;0.00;;;;;12.77;100.00;101388.78;5038681;28;45596;-81
2023/12/30 05:11:14;;;;;;;;;0.00;0.00;;;;;12.78;100.00;101390.50;5038451;28;46811;-81
2023/12/30 05:13:39;;;;;;;;;0.00;0.00;;;;;12.79;100.00;101392.19;5037901;28;60551;-81
2023/12/30 05:16:05;;;;;;;;;0.00;0.00;;;;;12.77;100.00;101386.16;5056648;28;45336;-81
2023/12/30 05:18:31;;;;;;;;;36.00;36.00;;;;;12.77;100.00;101386.16;5056155;28;45373;-81
2023/12/30 05:20:56;;;;;;;;;0.00;0.00;;;;;12.74;100.00;101372.34;5055244;28;74749;-81
2023/12/30 05:23:21;;;;;;;;;0.00;0.00;;;;;12.78;100.00;101381.81;5056207;28;45318;-81
2023/12/30 05:25:47;;;;;;;;;0.00;0.00;;;;;12.78;100.00;101376.59;5055542;28;69995;-81
2023/12/30 05:28:13;;;;;;;;;0.00;0.00;;;;;12.78;100.00;101377.44;5038659;28;45441;-81
2023/12/30 05:30:38;;;;;;;;;0.00;0.00;;;;;12.74;100.00;101378.44;5056292;28;46070;-81
2023/12/30 05:33:04;;;;;;;;;0.00;0.00;;;;;12.70;100.00;101371.59;5056094;28;45481;-81
2023/12/30 05:35:30;;;;;;;;;0.00;0.00;;;;;12.72;100.00;101376.75;5056650;28;45470;-81
2023/12/30 05:37:55;;;;;;;;;0.00;0.00;;;;;12.73;100.00;101368.03;5056616;28;45520;-80
2023/12/30 05:40:21;;;;;;;;;0.00;0.00;;;;;12.69;100.00;101366.41;5021751;28;47105;-81
2023/12/30 05:42:46;;;;;;;;;0.00;0.00;;;;;12.68;100.00;101373.34;5038020;28;45418;-81
2023/12/30 05:45:12;;;;;;;;;0.00;0.00;;;;;12.67;100.00;101368.19;5055355;28;68011;-81
2023/12/30 05:47:37;;;;;;;;;0.00;0.00;;;;;12.69;100.00;101367.25;5055219;28;60938;-81
2023/12/30 05:50:02;;;;;;;;;0.00;0.00;;;;;12.70;100.00;101374.19;5055099;28;67509;-81
2023/12/30 05:52:28;;;;;;;;;0.00;0.00;;;;;12.70;100.00;101365.50;5056113;28;45402;-81
2023/12/30 05:54:53;;;;;;;;;0.00;0.00;;;;;12.74;100.00;101373.22;5056513;28;45306;-81
2023/12/30 05:57:19;;;;;;;;;0.00;0.00;;;;;12.75;100.00;101369.69;5055145;28;69518;-81
2023/12/30 05:59:44;;;;;;;;;0.00;0.00;;;;;12.75;100.00;101369.69;5037014;28;75353;-81
2023/12/30 06:02:10;;;;;;;;;0.00;0.00;;;;;12.81;100.00;101357.34;5055309;28;45441;-81
2023/12/30 06:04:39;;;;;;;;;0.00;0.00;;;;;12.85;100.00;101358.97;5056138;28;45215;-81
2023/12/30 06:07:04;;;;;;;;;0.00;0.00;;;;;12.84;100.00;101358.13;5056068;28;45435;-81
2023/12/30 06:09:29;;;;;;;;;0.00;0.00;;;;;12.83;100.00;101361.63;5056027;28;46275;-82
2023/12/30 06:11:55;;;;;;;;;0.00;0.00;;;;;12.86;100.00;101368.53;5056166;28;45552;-81
2023/12/30 06:14:20;;;;;;;;;0.00;0.00;;;;;12.86;100.00;101365.94;5054858;28;68058;-82
2023/12/30 06:16:45;;;;;;;;;0.00;0.00;;;;;12.87;100.00;101367.63;5054505;28;70360;-81
2023/12/30 06:19:13;;;;;;;;;0.00;0.00;;;;;12.85;100.00;101369.44;5054916;28;75425;-81
2023/12/30 06:21:38;;;;;;;;;0.00;0.00;;;;;12.83;100.00;101368.63;5038017;28;45662;-81
2023/12/30 06:24:03;;;;;;;;;0.00;0.00;;;;;12.81;100.00;101367.81;5055853;28;45388;-81
2023/12/30 06:26:29;;;;;;;;;0.00;0.00;;;;;12.78;100.00;101373.97;5056089;28;45416;-81
2023/12/30 06:28:54;;;;;;;;;0.00;0.00;;;;;12.74;100.00;101378.44;5054721;28;72278;-81
2023/12/30 06:31:22;;;;;;;;;0.00;0.00;;;;;12.71;100.00;101388.13;5054189;28;74176;-81
2023/12/30 06:33:47;;;;;;;;;0.00;0.00;;;;;12.68;100.00;101391.66;5037721;28;45593;-81
2023/12/30 06:36:20;;;;;;;;;0.00;0.00;;;;;12.65;100.00;101386.53;5054895;28;67094;-81
2023/12/30 06:38:46;;;;;;;;;0.00;0.00;;;;;12.65;100.00;101396.09;5020791;28;47046;-81
2023/12/30 06:41:11;;;;;;;;;0.00;0.00;;;;;12.66;100.00;101385.59;5058019;28;72364;-81
2023/12/30 06:43:36;;;;;;;;;0.00;0.00;;;;;12.64;100.00;101381.34;5058296;28;70326;-81
2023/12/30 06:46:04;;;;;;;;;0.00;0.00;;;;;12.63;100.00;101379.59;5057790;28;70051;-81
2023/12/30 06:48:30;;;;;;;;;0.00;0.00;;;;;12.56;100.00;101384.16;5058819;28;47421;-81
2023/12/30 06:50:56;;;;;;;;;0.00;0.00;;;;;12.52;100.00;101388.59;5041047;28;45426;-81
2023/12/30 06:53:22;;;;;;;;;0.00;0.00;;;;;12.48;100.00;101384.38;5058875;28;45471;-81
2023/12/30 06:55:47;;;;;;;;;0.00;0.00;;;;;12.40;100.00;101384.53;5040971;28;45311;-80
2023/12/30 06:58:13;;;;;;;;;0.00;0.00;;;;;12.37;100.00;101392.47;5040375;28;69929;-81
2023/12/30 07:00:38;;;;;;;;;0.00;0.00;;;;;12.34;100.00;101383.88;5058813;28;69238;-81
2023/12/30 07:03:03;;;;;;;;;0.00;0.00;;;;;12.31;100.00;101386.53;5059044;28;45354;-81
2023/12/30 07:05:35;;;;;;;;;0.00;0.00;;;;;12.27;100.00;101388.38;5059388;28;48458;-81
2023/12/30 07:08:00;;;;;;;;;0.00;0.00;;;;;12.22;100.00;101385.06;5042075;28;47429;-81
2023/12/30 07:10:26;;;;;;;;;0.00;0.00;;;;;12.18;100.00;101386.00;5058336;28;73019;-81
2023/12/30 07:12:51;;;;;;;;;0.00;0.00;;;;;12.18;100.00;101384.28;5023177;28;69113;-81
2023/12/30 07:15:16;;;;;;;;;0.00;0.00;;;;;12.18;100.00;101380.78;5057503;28;69058;-81
2023/12/30 07:17:42;;;;;;;;;0.00;0.00;;;;;12.17;100.00;101371.25;5058748;28;70263;-81
2023/12/30 07:20:07;;;;;;;;;0.00;0.00;;;;;12.22;100.00;101378.94;5059461;28;45547;-81
2023/12/30 07:22:32;;;;;;;;;0.00;0.00;;;;;12.23;100.00;101373.69;5040407;28;45351;-81
2023/12/30 07:24:59;;;;;;;;;0.00;0.00;;;;;12.29;100.00;101378.75;5058568;28;45254;-81
2023/12/30 07:27:24;;;;;;;;;0.00;0.00;;;;;12.32;100.00;101373.47;5058025;28;46427;-81
2023/12/30 07:29:50;;;;;;;;;0.00;0.00;;;;;12.36;100.00;101376.84;5056878;28;72949;-81
2023/12/30 07:32:15;;;;;;;;;0.00;0.00;;;;;12.34;100.00;101374.28;5058278;28;45243;-81
2023/12/30 07:34:40;;;;;;;;;0.00;0.00;;;;;12.36;100.00;101379.47;5041491;28;45362;-81
2023/12/30 07:37:06;;;;;;;;;0.00;0.00;;;;;12.32;100.00;101375.22;5040536;28;46566;-81
2023/12/30 07:39:32;;;;;;;;;0.00;0.00;;;;;12.38;100.00;101381.13;5040495;28;45388;-80
2023/12/30 07:41:58;;;;;;;;;0.00;0.00;;;;;12.41;100.00;101372.38;5040254;28;45404;-81
2023/12/30 07:44:23;;;;;;;;;0.00;0.00;;;;;12.42;100.00;101373.22;5057771;28;45347;-81
2023/12/30 07:46:48;;;;;;;;;0.00;0.00;;;;;12.41;100.00;101367.16;5057455;28;66740;-81
2023/12/30 07:49:17;;;;;;;;;0.00;0.00;;;;;12.48;100.00;101370.44;5057878;28;45293;-81
2023/12/30 07:51:42;;;;;;;;;0.00;0.00;;;;;12.44;100.00;101369.66;5056781;28;45324;-80
2023/12/30 07:54:07;;;;;;;;;0.00;0.00;;;;;12.49;100.00;101377.38;5058140;28;45501;-81
2023/12/30 07:56:33;;;;;;;;;0.00;0.00;;;;;12.54;100.00;101375.50;5057047;28;75216;-80
2023/12/30 07:58:59;;;;;;;;;0.00;0.00;;;;;12.54;100.00;101368.53;5057441;28;45413;-81
2023/12/30 08:01:24;;;;;;;;;0.00;0.00;;;;;12.54;100.00;101370.28;5058571;28;45374;-81
2023/12/30 08:03:49;;;;;;;;;0.00;0.00;;;;;12.54;100.00;101380.75;5056761;28;70219;-81
2023/12/30 08:06:15;;;;;;;;;0.00;0.00;;;;;12.58;100.00;101383.22;5038430;28;76142;-81
2023/12/30 08:08:40;;;;;;;;;0.00;0.00;;;;;12.60;100.00;101380.56;5039400;28;52244;-81
2023/12/30 08:11:05;;;;;;;;;0.00;0.00;;;;;12.61;100.00;101384.91;5056685;28;67359;-81
2023/12/30 08:13:31;;;;;;;;;0.00;0.00;;;;;12.62;100.00;101386.59;5056013;28;69627;-81
2023/12/30 08:15:57;;;;;;;;;0.00;0.00;;;;;12.67;100.00;101374.28;5039143;28;46219;-81
2023/12/30 08:18:22;;;;;;;;;0.00;0.00;;;;;12.66;100.00;101377.78;5057644;28;45514;-81
2023/12/30 08:20:49;;;;;;;;;0.00;0.00;;;;;12.70;100.00;101368.97;5039648;28;45722;-81
2023/12/30 08:23:14;;;;;;;;;0.00;0.00;;;;;12.76;100.00;101374.03;5057402;28;45567;-81
2023/12/30 08:25:39;;;;;;;;;0.00;0.00;;;;;12.82;100.00;101364.31;5039188;28;45503;-81
2023/12/30 08:28:05;;;;;;;;;1.00;1.00;;;;;12.84;100.00;101354.66;5055862;28;72467;-81
2023/12/30 08:30:30;;;;;;;;;0.00;0.00;;;;;12.86;100.00;101358.94;5038197;28;65753;-81
2023/12/30 08:32:56;;;;;;;;;0.00;0.00;;;;;12.90;100.00;101357.94;5057219;28;45530;-81
2023/12/30 08:35:21;;;;;;;;;0.00;0.00;;;;;12.96;100.00;101354.28;5057109;28;47245;-82
2023/12/30 08:37:47;;;;;;;;;0.00;0.00;;;;;13.05;100.00;101346.19;5056131;28;72392;-81
2023/12/30 08:40:14;;;;;;;;;0.00;0.00;;;;;13.20;100.00;101342.25;5057196;28;45439;-81
2023/12/30 08:42:44;;;;;;;;;0.00;0.00;;;;;13.27;100.00;101340.31;5038770;28;45373;-81
2023/12/30 08:45:17;;;;;;;;;0.00;0.00;;;;;13.31;100.00;101337.59;5056659;28;46710;-81
2023/12/30 08:47:44;;;;;;;;;0.00;0.00;;;;;13.39;100.00;101331.28;5056987;28;45461;-81
2023/12/30 08:50:10;;;;;;;;;0.00;0.00;;;;;13.39;100.00;101323.44;5056890;28;45441;-82
2023/12/30 08:52:36;;;;;;;;;0.00;0.00;;;;;13.41;100.00;101316.38;5057089;28;45425;-81
2023/12/30 08:55:01;;;;;;;;;0.00;0.00;;;;;13.40;100.00;101318.16;5055777;28;75506;-81
2023/12/30 08:57:26;;;;;;;;;0.00;0.00;;;;;13.44;100.00;101313.69;5038442;28;45378;-82
2023/12/30 08:59:52;;;;;;;;;0.00;0.00;;;;;13.49;100.00;101309.16;5056923;28;45408;-81
2023/12/30 09:02:17;;;;;;;;;0.00;0.00;;;;;13.59;100.00;101312.34;5055312;28;69187;-81
2023/12/30 09:04:42;;;;;;;;;0.00;0.00;;;;;13.55;100.00;101315.03;5056602;28;46064;-81
2023/12/30 09:07:08;;;;;;;;;0.00;0.00;;;;;13.61;100.00;101318.38;5038076;28;65529;-81
2023/12/30 09:09:34;;;;;;;;;0.00;0.00;;;;;13.68;100.00;101319.88;5056567;28;45365;-81
2023/12/30 09:11:59;;;;;;;;;0.00;0.00;;;;;13.73;100.00;101316.22;5056435;28;45437;-81
2023/12/30 09:14:25;;;;;;;;;0.00;0.00;;;;;13.73;100.00;101318.84;5055356;28;76750;-81
2023/12/30 09:16:50;;;;;;;;;0.00;0.00;;;;;13.77;100.00;101322.19;5055597;28;68939;-81
2023/12/30 09:19:16;;;;;;;;;0.00;0.00;;;;;13.81;100.00;101323.81;5038474;28;45409;-81
2023/12/30 09:21:41;;;;;;;;;0.00;0.00;;;;;13.93;100.00;101322.56;5037396;28;70846;-81
2023/12/30 09:24:06;;;;;;;;;0.00;0.00;;;;;14.00;100.00;101317.97;5037279;28;75524;-81
2023/12/30 09:26:32;;;;;;;;;0.00;0.00;;;;;14.08;100.00;101311.56;5055872;28;45613;-81
2023/12/30 09:28:57;;;;;;;;;0.00;0.00;;;;;14.08;100.00;101313.34;5038237;28;46265;-81
2023/12/30 09:31:26;;;;;;;;;0.00;0.00;;;;;14.08;100.00;101319.41;5056492;28;45383;-81
2023/12/30 09:33:52;;;;;;;;;0.00;0.00;;;;;14.07;100.00;101320.31;5056214;28;45422;-81
2023/12/30 09:36:17;;;;;;;;;0.00;0.00;;;;;14.00;100.00;101324.03;5055195;28;72296;-81
2023/12/30 09:38:43;;;;;;;;;6.50;6.50;;;;;14.07;100.00;101322.94;5056188;28;45485;-81
2023/12/30 09:41:08;;;;;;;;;0.00;0.00;;;;;14.15;100.00;101327.91;5055596;28;45158;-80
2023/12/30 09:43:34;;;;;;;;;0.00;0.00;;;;;14.23;100.00;101325.03;5036010;28;61282;-81
2023/12/30 09:46:00;;;;;;;;;0.00;0.00;;;;;14.25;100.00;101325.84;5036509;28;45390;-81
2023/12/30 09:48:26;;;;;;;;;0.00;0.00;;;;;14.28;100.00;101323.09;5053838;28;65943;-81
2023/12/30 09:50:53;;;;;;;;;0.00;0.00;;;;;14.32;100.00;101320.31;5036666;28;45361;-81
2023/12/30 09:53:21;;;;;;;;;0.00;0.00;;;;;14.37;100.00;101317.53;5036469;28;45638;-81
2023/12/30 09:55:48;;;;;;;;;0.00;0.00;;;;;14.41;100.00;101316.53;5036142;28;45398;-81
2023/12/30 09:58:13;;;;;;;;;0.00;0.00;;;;;14.48;100.00;101317.16;5020061;28;45487;-81
2023/12/30 10:00:44;;;;;;;;;0.00;0.00;;;;;14.53;100.00;101317.84;5036599;28;45326;-81
2023/12/30 10:03:10;;;;;;;;;0.00;0.00;;;;;14.57;100.00;101311.63;5054384;28;45406;-81
2023/12/30 10:05:36;;;;;;;;;0.00;0.00;;;;;14.65;100.00;101311.31;5036484;28;45440;-81
2023/12/30 10:08:03;;;;;;;;;0.00;0.00;;;;;14.71;100.00;101311.97;5054444;28;45417;-82
2023/12/30 10:10:34;;;;;;;;;0.00;0.00;;;;;14.84;100.00;101311.50;5054226;28;45434;-81
2023/12/30 10:13:00;;;;;;;;;0.00;0.00;;;;;14.90;100.00;101301.66;5054287;28;46676;-81
2023/12/30 10:15:25;;;;;;;;;0.00;0.00;;;;;15.01;100.00;101308.25;5055936;28;72884;-81
2023/12/30 10:17:50;;;;;;;;;0.00;0.00;;;;;15.20;100.00;101303.16;5057499;28;67808;-81
2023/12/30 10:20:23;;;;;;;;;0.00;0.00;;;;;15.32;100.00;101302.66;5057386;28;70105;-81
2023/12/30 10:22:48;;;;;;;;;0.00;0.00;;;;;15.44;100.00;101301.31;5058172;28;47154;-81
2023/12/30 10:25:13;;;;;;;;;0.00;0.00;;;;;15.56;100.00;101299.97;5057779;28;51330;-82
2023/12/30 10:27:39;;;;;;;;;0.00;0.00;;;;;15.67;100.00;101297.75;5057819;28;58467;-81
2023/12/30 10:30:08;;;;;;;;;0.00;0.00;;;;;15.80;100.00;101291.09;5040251;28;45501;-81
2023/12/30 10:32:33;;;;;;;;;0.00;0.00;;;;;16.00;100.00;101294.66;5040373;28;45446;-82
2023/12/30 10:34:58;;;;;;;;;1.00;0.00;;;;;16.16;100.00;101289.63;5057271;28;71958;-81
2023/12/30 10:37:23;;;;;;;;;0.00;0.00;;;;;16.28;100.00;101288.22;5057173;28;67268;-81
2023/12/30 10:39:51;;;;;;;;;0.00;0.00;;;;;16.24;100.00;101279.63;5058429;28;45281;-82
2023/12/30 10:42:17;;;;;;;;;0.00;0.00;;;;;16.22;100.00;101277.06;5001933;28;1087782;-81
2023/12/30 10:44:42;;;;;;;;;0.00;0.00;;;;;16.36;100.00;101268.56;5058011;28;68853;-82
2023/12/30 10:47:14;;;;;;;;;0.00;0.00;;;;;16.39;100.00;101265.78;5058252;28;69141;-81
2023/12/30 10:49:44;;;;;;;;;0.00;0.00;;;;;16.44;100.00;101268.22;5041042;28;45438;-82
2023/12/30 10:52:11;;;;;;;;;0.00;0.00;;;;;16.51;100.00;101263.53;5040471;28;45538;-82
2023/12/30 10:54:41;;;;;;;;;15.00;15.00;;;;;16.73;100.00;101259.00;5040754;28;45384;-81
2023/12/30 10:57:08;;;;;;;;;0.00;0.00;;;;;16.88;100.00;101257.44;5058894;28;45265;-82
2023/12/30 10:59:37;;;;;;;;;0.00;0.00;;;;;17.05;100.00;101251.41;5040798;28;45556;-81
2023/12/30 11:02:03;;;;;;;;;0.00;0.00;;;;;17.32;100.00;101246.56;5040682;28;47794;-80
2023/12/30 11:04:28;;;;;;;;;0.00;0.00;;;;;18.12;100.00;101237.28;5039853;28;66341;-81
2023/12/30 11:06:57;;;;;;;;;0.00;0.00;;;;;18.16;100.00;101243.25;5040367;28;45668;-81
2023/12/30 11:09:29;;;;;;;;;1.00;1.00;;;;;18.22;100.00;101229.78;5058724;28;45389;-81